Time;durP1;ratioP1;P1;durP2;ratioP2;P2;SDS_P1;SDS_P2;PMS_P1;PMS_P2;Temp;Humidity;BMP_temperature;BMP_pressure;BME280_temperature;BME280_humidity;BME280_pressure;Samples;Min_cycle;Max_cycle;Signal;HPM_P1;HPM_P2
2021/12/28 00:45:47;;;;;;;87.22;56.05;;;6.70;99.90;;;;;;6111118;23;20202;-85
2021/12/28 00:48:17;;;;;;;84.03;48.72;;;6.70;99.90;;;;;;6044058;23;20156;-85
2021/12/28 00:50:44;;;;;;;86.30;42.88;;;6.70;99.90;;;;;;6042894;23;20598;-85
2021/12/28 00:53:15;;;;;;;84.55;46.55;;;6.70;99.90;;;;;;6068660;23;20143;-85
2021/12/28 00:55:51;;;;;;;84.20;44.10;;;6.70;99.90;;;;;;6069881;23;20212;-87
2021/12/28 00:58:21;;;;;;;82.32;40.15;;;6.80;99.90;;;;;;6044050;23;20183;-86
2021/12/28 01:00:47;;;;;;;81.50;38.90;;;6.70;99.90;;;;;;6067896;23;20144;-86
2021/12/28 01:03:15;;;;;;;79.30;32.53;;;6.70;99.90;;;;;;6069527;23;20140;-86
2021/12/28 01:05:46;;;;;;;77.60;33.55;;;6.60;99.90;;;;;;6068701;23;20376;-86
2021/12/28 01:08:18;;;;;;;78.38;32.80;;;6.60;99.90;;;;;;6069894;23;20565;-85
2021/12/28 01:10:59;;;;;;;74.60;25.90;;;6.60;99.90;;;;;;6069017;23;20148;-87
2021/12/28 01:13:37;;;;;;;77.38;27.80;;;6.70;99.90;;;;;;6069427;23;20159;-86
2021/12/28 01:16:13;;;;;;;76.50;29.33;;;6.70;99.90;;;;;;6071075;23;20159;-87
2021/12/28 01:18:47;;;;;;;83.53;29.08;;;6.70;99.90;;;;;;6072363;23;20139;-86
2021/12/28 01:21:26;;;;;;;81.97;33.42;;;6.70;99.90;;;;;;6073460;23;20128;-87
2021/12/28 01:24:10;;;;;;;81.30;33.67;;;6.70;99.90;;;;;;6072985;23;20160;-87
2021/12/28 01:26:43;;;;;;;79.70;29.65;;;6.70;99.90;;;;;;6073075;23;20172;-87
2021/12/28 01:29:38;;;;;;;79.15;33.67;;;6.80;99.90;;;;;;6046749;23;20504;-87
2021/12/28 01:32:08;;;;;;;82.43;32.10;;;6.80;99.90;;;;;;6071250;23;20624;-87
2021/12/28 01:34:55;;;;;;;83.43;41.25;;;6.70;99.90;;;;;;6071964;23;20636;-86
2021/12/28 01:37:30;;;;;;;79.07;35.80;;;6.70;99.90;;;;;;6072667;23;20199;-86
2021/12/28 01:39:56;;;;;;;81.50;43.35;;;6.70;99.90;;;;;;6047679;23;20178;-87
2021/12/28 01:42:41;;;;;;;;;;;;;;;;;;;;;
2021/12/28 01:45:17;;;;;;;90.80;43.95;;;6.80;99.90;;;;;;6072524;23;20251;-87
2021/12/28 01:47:45;;;;;;;81.53;46.55;;;6.70;99.90;;;;;;6046694;23;20162;-87
2021/12/28 01:50:16;;;;;;;82.57;42.80;;;6.70;99.90;;;;;;6071127;23;20164;-87
2021/12/28 01:52:48;;;;;;;82.35;41.28;;;6.70;99.90;;;;;;6070923;23;20152;-86
2021/12/28 01:55:17;;;;;;;84.07;40.72;;;6.70;99.90;;;;;;6072431;23;20267;-86
2021/12/28 01:57:45;;;;;;;81.32;38.10;;;6.70;99.90;;;;;;6071713;23;20220;-87
2021/12/28 02:00:35;;;;;;;81.32;35.80;;;6.70;99.90;;;;;;6046690;23;20148;-86
2021/12/28 02:03:30;;;;;;;80.07;30.42;;;6.80;99.90;;;;;;6046296;23;20144;-86
2021/12/28 02:06:09;;;;;;;80.13;29.88;;;6.80;99.90;;;;;;6070390;23;20148;-87
2021/12/28 02:08:48;;;;;;;79.10;27.42;;;6.80;99.90;;;;;;6070196;23;20152;-85
2021/12/28 02:11:27;;;;;;;79.20;33.60;;;6.80;99.90;;;;;;6069442;23;20148;-85
2021/12/28 02:13:53;;;;;;;80.55;34.67;;;6.80;99.90;;;;;;6042605;23;20487;-85
2021/12/28 02:16:23;;;;;;;87.45;41.42;;;6.80;99.90;;;;;;6041637;23;20215;-85
2021/12/28 02:18:51;;;;;;;84.50;42.10;;;6.80;99.90;;;;;;6042408;23;20153;-85
2021/12/28 02:21:26;;;;;;;87.78;58.60;;;6.80;99.90;;;;;;6064534;23;20159;-85
2021/12/28 02:24:12;;;;;;;81.97;44.15;;;6.80;99.90;;;;;;6067613;23;20544;-86
2021/12/28 02:26:44;;;;;;;80.20;33.65;;;6.80;99.90;;;;;;6067525;23;20132;-85
2021/12/28 02:29:10;;;;;;;84.50;41.35;;;6.90;99.90;;;;;;6067958;23;20144;-85
2021/12/28 02:31:49;;;;;;;85.50;46.30;;;6.90;99.90;;;;;;6066127;23;20156;-85
2021/12/28 02:34:27;;;;;;;89.63;44.10;;;6.90;99.90;;;;;;6042046;23;20404;-85
2021/12/28 02:36:52;;;;;;;83.07;39.45;;;6.90;99.90;;;;;;6043626;23;20175;-86
2021/12/28 02:39:21;;;;;;;90.20;45.30;;;6.90;99.90;;;;;;6044174;23;20198;-85
2021/12/28 02:41:47;;;;;;;87.20;48.72;;;7.00;99.90;;;;;;6067794;23;20377;-85
2021/12/28 02:44:15;;;;;;;84.00;45.40;;;7.00;99.90;;;;;;6069321;23;20168;-85
2021/12/28 02:47:03;;;;;;;81.97;39.15;;;7.00;99.90;;;;;;6067967;23;20156;-85
2021/12/28 02:49:47;;;;;;;81.07;38.72;;;7.00;99.90;;;;;;6043923;23;20529;-86
2021/12/28 02:52:44;;;;;;;;;;;;;;;;;;;;;
2021/12/28 02:55:52;;;;;;;77.32;29.40;;;7.10;99.90;;;;;;6012157;23;20207;-87
2021/12/28 02:59:04;;;;;;;86.60;29.27;;;7.20;99.90;;;;;;6006775;23;20181;-87
2021/12/28 03:02:11;;;;;;;87.68;31.75;;;7.30;99.90;;;;;;6112202;23;20153;-86
2021/12/28 03:05:02;;;;;;;82.70;34.00;;;7.30;99.90;;;;;;5985134;23;20618;-86
2021/12/28 03:07:45;;;;;;;92.50;32.35;;;7.30;99.90;;;;;;5986009;23;20242;-86
2021/12/28 03:10:33;;;;;;;;;;;;;;;;;;;;;
2021/12/28 03:13:25;;;;;;;86.28;33.53;;;7.40;99.90;;;;;;6045871;23;20517;-86
2021/12/28 03:15:56;;;;;;;86.13;36.85;;;7.40;99.90;;;;;;6069379;23;20152;-86
2021/12/28 03:18:25;;;;;;;87.20;38.10;;;7.40;99.90;;;;;;6067942;23;20175;-87
2021/12/28 03:21:12;;;;;;;85.50;38.20;;;7.40;99.90;;;;;;6069974;23;20144;-87
2021/12/28 03:23:47;;;;;;;84.75;38.92;;;7.50;99.90;;;;;;6056521;23;20294;-86
2021/12/28 03:26:15;;;;;;;83.53;38.05;;;7.50;99.90;;;;;;6070866;23;20583;-86
2021/12/28 03:28:45;;;;;;;82.57;37.50;;;7.50;99.90;;;;;;6068754;23;20152;-86
2021/12/28 03:31:30;;;;;;;82.25;38.72;;;7.50;99.90;;;;;;6069021;23;20140;-86
2021/12/28 03:33:57;;;;;;;85.00;41.30;;;7.50;99.90;;;;;;6043577;23;20207;-86
2021/12/28 03:36:25;;;;;;;87.32;40.10;;;7.60;99.90;;;;;;6052806;23;20158;-86
2021/12/28 03:39:01;;;;;;;87.60;42.60;;;7.60;99.90;;;;;;6045112;23;20586;-86
2021/12/28 03:41:31;;;;;;;83.80;38.85;;;7.60;99.90;;;;;;6071224;23;20132;-86
2021/12/28 03:43:58;;;;;;;93.40;40.45;;;7.60;99.90;;;;;;6050604;23;20279;-86
2021/12/28 03:46:27;;;;;;;84.00;38.97;;;7.60;99.90;;;;;;6077190;23;20526;-87
2021/12/28 03:48:53;;;;;;;86.78;46.10;;;7.70;99.90;;;;;;6077058;23;20164;-86
2021/12/28 03:51:19;;;;;;;89.40;44.17;;;7.70;99.90;;;;;;6075838;23;20163;-86
2021/12/28 03:53:46;;;;;;;91.60;49.33;;;7.70;99.90;;;;;;6080080;23;20203;-86
2021/12/28 03:56:16;;;;;;;90.57;48.88;;;7.80;99.90;;;;;;6081512;23;20372;-86
2021/12/28 03:58:44;;;;;;;97.20;44.30;;;7.80;99.90;;;;;;6056853;23;20629;-87
2021/12/28 04:01:24;;;;;;;87.32;51.17;;;7.80;99.90;;;;;;6081793;23;20147;-86
2021/12/28 04:03:56;;;;;;;92.03;52.22;;;7.80;99.90;;;;;;6078151;23;20168;-87
2021/12/28 04:06:30;;;;;;;94.60;55.45;;;7.80;99.90;;;;;;6078522;23;20140;-86
2021/12/28 04:09:01;;;;;;;90.50;47.03;;;7.80;99.90;;;;;;6077344;23;20171;-86
2021/12/28 04:11:27;;;;;;;88.10;49.47;;;7.80;99.90;;;;;;6077446;23;20144;-87
2021/12/28 04:14:10;;;;;;;91.53;42.17;;;7.90;99.90;;;;;;6077448;23;20194;-87
2021/12/28 04:16:47;;;;;;;93.63;46.47;;;7.90;99.90;;;;;;6077434;23;20190;-86
2021/12/28 04:19:31;;;;;;;94.65;50.88;;;7.90;99.90;;;;;;6049914;23;20147;-86
2021/12/28 04:22:00;;;;;;;83.43;42.50;;;7.90;99.90;;;;;;6072932;23;20144;-86
2021/12/28 04:24:26;;;;;;;92.13;40.67;;;7.90;99.90;;;;;;6070209;22;20231;-86
2021/12/28 04:27:00;;;;;;;87.93;42.40;;;7.90;99.90;;;;;;6075053;23;20152;-86
2021/12/28 04:29:36;;;;;;;88.25;47.67;;;8.00;99.90;;;;;;6050097;23;20156;-86
2021/12/28 04:32:13;;;;;;;90.78;44.97;;;8.00;99.90;;;;;;6073823;23;20212;-86
2021/12/28 04:34:48;;;;;;;95.78;49.72;;;8.00;99.90;;;;;;6048588;23;20176;-86
2021/12/28 04:37:20;;;;;;;90.10;46.13;;;8.00;99.90;;;;;;6049371;23;20198;-86
2021/12/28 04:39:49;;;;;;;85.93;43.97;;;8.00;99.90;;;;;;6050951;23;20405;-86
2021/12/28 04:42:26;;;;;;;97.05;47.63;;;8.00;99.90;;;;;;6052554;23;20176;-86
2021/12/28 04:44:52;;;;;;;96.40;48.05;;;8.00;99.90;;;;;;6054330;23;20178;-86
2021/12/28 04:47:18;;;;;;;86.38;46.22;;;8.00;99.90;;;;;;6080747;23;20164;-87
2021/12/28 04:49:45;;;;;;;89.90;54.80;;;8.10;99.90;;;;;;6055889;23;20155;-86
2021/12/28 04:52:14;;;;;;;91.60;51.95;;;8.00;99.90;;;;;;6056850;23;20372;-86
2021/12/28 04:54:55;;;;;;;91.55;52.17;;;8.10;99.90;;;;;;6082875;23;20160;-87
2021/12/28 04:57:21;;;;;;;91.57;57.95;;;8.10;99.90;;;;;;6082822;23;20143;-85
2021/12/28 04:59:47;;;;;;;86.80;55.72;;;8.10;99.90;;;;;;6083543;23;20152;-87
2021/12/28 05:02:15;;;;;;;90.05;55.58;;;8.10;99.90;;;;;;6081877;23;20148;-86
2021/12/28 05:04:46;;;;;;;88.10;55.40;;;8.10;99.90;;;;;;6082963;23;20160;-86
2021/12/28 05:07:12;;;;;;;95.53;56.22;;;8.10;99.90;;;;;;6057566;23;20168;-86
2021/12/28 05:09:40;;;;;;;96.13;54.30;;;8.10;99.90;;;;;;6083744;23;20151;-86
2021/12/28 05:12:09;;;;;;;88.55;54.15;;;8.10;99.90;;;;;;6058376;23;20399;-86
2021/12/28 05:14:39;;;;;;;90.28;53.00;;;8.10;99.90;;;;;;6084347;23;20160;-86
2021/12/28 05:17:05;;;;;;;101.13;47.40;;;8.10;99.90;;;;;;6060206;23;20171;-86
2021/12/28 05:19:42;;;;;;;90.15;48.47;;;8.10;99.90;;;;;;6084266;23;20148;-86
2021/12/28 05:22:09;;;;;;;96.75;46.97;;;8.10;99.90;;;;;;6056320;23;20147;-86
2021/12/28 05:24:40;;;;;;;84.75;48.72;;;8.20;99.90;;;;;;6054953;23;20188;-86
2021/12/28 05:27:09;;;;;;;94.82;54.90;;;8.10;99.90;;;;;;6080755;23;20195;-87
2021/12/28 05:29:35;;;;;;;99.05;54.63;;;8.20;99.90;;;;;;6055897;23;20159;-86
2021/12/28 05:32:04;;;;;;;91.87;59.47;;;8.20;99.90;;;;;;6056889;23;20204;-86
2021/12/28 05:34:30;;;;;;;89.05;52.00;;;8.20;99.90;;;;;;6058664;23;20404;-86
2021/12/28 05:36:56;;;;;;;89.40;57.15;;;8.20;99.90;;;;;;6084475;23;20144;-86
2021/12/28 05:39:24;;;;;;;94.50;57.50;;;8.30;99.90;;;;;;6058081;23;20215;-86
2021/12/28 05:41:50;;;;;;;97.50;56.80;;;8.20;99.90;;;;;;6082665;23;20236;-86
2021/12/28 05:44:17;;;;;;;92.37;55.30;;;8.20;99.90;;;;;;6083158;23;20164;-86
2021/12/28 05:46:46;;;;;;;95.47;57.10;;;8.30;99.90;;;;;;6057647;23;20423;-86
2021/12/28 05:49:12;;;;;;;93.57;54.10;;;8.30;99.90;;;;;;6057577;23;20148;-87
2021/12/28 05:51:38;;;;;;;98.97;50.80;;;8.30;99.90;;;;;;6084300;23;20204;-86
2021/12/28 05:54:04;;;;;;;105.80;61.43;;;8.30;99.90;;;;;;6061737;23;20168;-86
2021/12/28 05:56:30;;;;;;;89.00;50.22;;;8.30;99.90;;;;;;6062037;23;20148;-86
2021/12/28 05:58:56;;;;;;;89.17;55.23;;;8.30;99.90;;;;;;6084567;23;20144;-85
2021/12/28 06:01:21;;;;;;;94.23;55.37;;;8.30;99.90;;;;;;6059325;23;20212;-86
2021/12/28 06:03:47;;;;;;;94.50;52.87;;;8.30;99.90;;;;;;6053857;23;20224;-86
2021/12/28 06:06:13;;;;;;;94.07;51.67;;;8.40;99.90;;;;;;6053503;23;20202;-86
2021/12/28 06:08:42;;;;;;;93.43;56.50;;;8.30;99.90;;;;;;6054231;23;20174;-85
2021/12/28 06:11:12;;;;;;;102.53;57.55;;;8.30;99.90;;;;;;6052011;23;20442;-87
2021/12/28 06:13:40;;;;;;;96.15;57.63;;;8.30;99.90;;;;;;6076348;23;20168;-85
2021/12/28 06:16:06;;;;;;;96.15;58.08;;;8.30;99.90;;;;;;6076361;23;20151;-86
2021/12/28 06:18:32;;;;;;;95.82;51.92;;;8.30;99.90;;;;;;6087207;23;20196;-87
2021/12/28 06:20:58;;;;;;;96.17;57.20;;;8.30;99.90;;;;;;6087211;23;20135;-86
2021/12/28 06:23:24;;;;;;;87.43;55.27;;;8.30;99.90;;;;;;6088108;23;20190;-86
2021/12/28 06:25:52;;;;;;;92.37;55.10;;;8.30;99.90;;;;;;6087108;23;20170;-86
2021/12/28 06:28:18;;;;;;;92.00;59.88;;;8.30;99.90;;;;;;6087468;23;20168;-86
2021/12/28 06:30:53;;;;;;;91.53;62.77;;;8.30;99.90;;;;;;6087070;23;20140;-86
2021/12/28 06:33:22;;;;;;;91.63;58.88;;;8.30;99.90;;;;;;6061455;23;20168;-86
2021/12/28 06:35:52;;;;;;;92.32;60.33;;;8.30;99.90;;;;;;6087410;23;20151;-85
2021/12/28 06:38:21;;;;;;;86.30;52.38;;;8.40;99.90;;;;;;6084778;23;20159;-85
2021/12/28 06:40:48;;;;;;;94.53;61.17;;;8.30;99.90;;;;;;6085071;23;20140;-85
2021/12/28 06:43:16;;;;;;;94.07;69.70;;;8.40;99.90;;;;;;6061555;23;20150;-86
2021/12/28 06:45:42;;;;;;;92.78;69.38;;;8.40;99.90;;;;;;6086222;23;20227;-85
2021/12/28 07:41:49;;;;;;;89.82;56.33;;;8.10;99.90;;;;;;6101360;23;20162;-88
2021/12/28 07:47:24;;;;;;;97.90;66.32;;;8.00;99.90;;;;;;6117906;23;20225;-88
2021/12/28 07:57:37;;;;;;;;;;;;;;;;;;;;;
2021/12/28 08:00:19;;;;;;;89.50;50.72;;;7.90;99.90;;;;;;6045260;23;20224;-88
2021/12/28 08:03:16;;;;;;;86.18;50.22;;;7.90;99.90;;;;;;6122144;23;20615;-88
2021/12/28 08:06:05;;;;;;;86.10;57.28;;;7.90;99.90;;;;;;6008756;23;20176;-87
2021/12/28 08:09:03;;;;;;;92.15;64.57;;;7.90;99.90;;;;;;6032964;23;20637;-87
2021/12/28 08:11:46;;;;;;;;;;;;;;;;;;;;;
2021/12/28 08:15:06;;;;;;;92.22;67.40;;;8.10;99.90;;;;;;6121733;23;20241;-87
2021/12/28 08:31:09;;;;;;;;;;;;;;;;;;;;;
2021/12/28 08:38:41;;;;;;;;;;;;;;;;;;;;;
2021/12/28 08:52:08;;;;;;;87.38;52.13;;;8.10;99.90;;;;;;6110149;23;20175;-87
2021/12/28 08:55:34;;;;;;;88.20;57.10;;;8.10;99.90;;;;;;6122511;23;20173;-87
2021/12/28 08:58:06;;;;;;;88.85;62.58;;;8.20;99.90;;;;;;6096557;23;20595;-87
2021/12/28 09:06:41;;;;;;;96.38;71.15;;;8.20;99.90;;;;;;6152148;23;20506;-88
2021/12/28 09:13:41;;;;;;;;;;;;;;;;;;;;;
2021/12/28 09:42:11;;;;;;;83.60;54.10;;;8.70;99.90;;;;;;6102560;23;20157;-88
2021/12/28 09:58:39;;;;;;;93.68;75.00;;;8.80;99.90;;;;;;6119466;23;20198;-87
2021/12/28 10:08:18;;;;;;;;;;;;;;;;;;;;;
2021/12/28 10:11:20;;;;;;;92.32;73.32;;;8.90;99.90;;;;;;6034056;23;20247;-88
2021/12/28 10:15:03;;;;;;;;;;;;;;;;;;;;;
2021/12/28 10:18:51;;;;;;;94.80;80.15;;;9.00;99.90;;;;;;6121474;23;20228;-89
2021/12/28 10:22:01;;;;;;;99.72;83.97;;;9.00;99.90;;;;;;6085266;23;20251;-88
2021/12/28 10:25:27;;;;;;;;;;;;;;;;;;;;;
2021/12/28 10:28:54;;;;;;;;;;;;;;;;;;;;;
2021/12/28 11:21:41;;;;;;;123.97;112.38;;;10.30;99.90;;;;;;6005186;23;20225;-88
2021/12/28 11:29:36;;;;;;;97.47;86.85;;;10.40;99.90;;;;;;6119033;23;20205;-88
2021/12/28 11:32:16;;;;;;;93.40;78.43;;;10.50;99.90;;;;;;6096531;23;20131;-87
2021/12/28 11:34:47;;;;;;;89.30;68.70;;;10.50;99.90;;;;;;6122268;23;20612;-88
2021/12/28 11:37:26;;;;;;;88.38;63.08;;;10.50;99.90;;;;;;6122257;23;20143;-88
2021/12/28 11:40:18;;;;;;;84.53;53.38;;;10.50;99.90;;;;;;6122741;23;20131;-88
2021/12/28 11:42:43;;;;;;;79.97;42.55;;;10.60;99.90;;;;;;6108316;23;20151;-88
2021/12/28 11:45:09;;;;;;;83.07;51.07;;;10.60;99.90;;;;;;6122009;23;20169;-88
2021/12/28 11:47:35;;;;;;;84.77;56.30;;;10.60;99.90;;;;;;6122089;23;20167;-88
2021/12/28 11:50:04;;;;;;;88.87;67.27;;;10.60;99.90;;;;;;6122103;23;20166;-86
2021/12/28 11:52:29;;;;;;;90.20;73.68;;;10.60;99.90;;;;;;6096231;23;20549;-87
2021/12/28 11:55:01;;;;;;;84.63;55.07;;;10.60;99.90;;;;;;6122249;23;20163;-87
2021/12/28 11:57:30;;;;;;;84.78;57.65;;;10.50;99.90;;;;;;6122492;23;20893;-87
2021/12/28 11:59:57;;;;;;;84.50;55.58;;;10.50;99.90;;;;;;6095239;23;20150;-87
2021/12/28 12:03:04;;;;;;;86.57;59.63;;;10.50;99.90;;;;;;6096532;23;20161;-87
2021/12/28 12:05:56;;;;;;;93.15;69.68;;;10.50;99.90;;;;;;6123659;23;20185;-86
2021/12/28 12:08:56;;;;;;;92.30;77.78;;;10.60;99.90;;;;;;6056271;23;20186;-86
2021/12/28 12:11:30;;;;;;;89.60;69.15;;;10.60;99.90;;;;;;6106716;23;20220;-86
2021/12/28 12:15:08;;;;;;;;;;;;;;;;;;;;;
2021/12/28 12:18:25;;;;;;;96.60;85.65;;;10.60;99.90;;;;;;6034070;23;20227;-87
2021/12/28 12:32:24;;;;;;;107.25;96.30;;;10.50;99.90;;;;;;6152533;23;20182;-86
2021/12/28 12:34:50;;;;;;;93.13;82.63;;;10.50;99.90;;;;;;6154902;23;20652;-86
2021/12/28 12:37:20;;;;;;;91.20;76.07;;;10.50;99.90;;;;;;6158173;23;20138;-86
2021/12/28 12:39:54;;;;;;;86.85;59.97;;;10.50;99.90;;;;;;6163989;23;20448;-85
2021/12/28 12:42:20;;;;;;;118.38;105.72;;;10.50;99.90;;;;;;6165278;23;20155;-85
2021/12/28 12:44:46;;;;;;;87.88;53.92;;;10.50;99.90;;;;;;6166027;23;20158;-86
2021/12/28 12:47:11;;;;;;;100.47;79.67;;;10.50;99.90;;;;;;6166025;22;20188;-85
2021/12/28 12:49:37;;;;;;;89.13;57.17;;;10.40;99.90;;;;;;6124257;22;20198;-83
2021/12/28 12:52:16;;;;;;;92.10;59.20;;;10.50;99.90;;;;;;6101862;23;20147;-84
2021/12/28 12:54:46;;;;;;;94.53;71.30;;;10.50;99.90;;;;;;6127295;23;20169;-83
2021/12/28 12:57:19;;;;;;;104.07;93.03;;;10.40;99.90;;;;;;6127643;23;20153;-82
2021/12/28 12:59:46;;;;;;;125.63;113.57;;;10.40;99.90;;;;;;6128427;23;20131;-83
2021/12/28 13:02:34;;;;;;;150.93;137.40;;;10.30;99.90;;;;;;6127785;23;20150;-83
2021/12/28 13:05:10;;;;;;;131.23;118.57;;;10.30;99.90;;;;;;6101807;23;20253;-83
2021/12/28 13:07:38;;;;;;;160.85;145.80;;;10.20;99.90;;;;;;6103330;23;20170;-84
2021/12/28 13:10:07;;;;;;;111.82;99.57;;;10.20;99.90;;;;;;6128748;23;20143;-84
2021/12/28 13:12:35;;;;;;;101.40;75.03;;;10.20;99.90;;;;;;6129679;23;20143;-84
2021/12/28 13:15:02;;;;;;;89.57;50.38;;;10.20;99.90;;;;;;6128935;23;20163;-84
2021/12/28 13:17:29;;;;;;;106.97;76.20;;;10.20;99.90;;;;;;6103686;23;20151;-84
2021/12/28 13:20:08;;;;;;;92.68;43.50;;;10.20;99.90;;;;;;6103433;23;20161;-84
2021/12/28 13:22:40;;;;;;;79.10;29.27;;;10.20;99.90;;;;;;6130305;23;20165;-83
2021/12/28 13:25:09;;;;;;;80.00;28.77;;;10.20;99.90;;;;;;6103715;23;20214;-84
2021/12/28 13:27:36;;;;;;;83.28;28.90;;;10.20;99.90;;;;;;6103701;23;20174;-84
2021/12/28 13:30:06;;;;;;;84.68;36.30;;;10.20;99.90;;;;;;6129532;23;20143;-84
2021/12/28 13:32:36;;;;;;;110.28;65.28;;;10.20;99.90;;;;;;6129629;23;20138;-84
2021/12/28 13:35:12;;;;;;;94.32;53.55;;;10.30;99.90;;;;;;6129177;23;20608;-84
2021/12/28 13:37:42;;;;;;;89.45;48.25;;;10.30;99.90;;;;;;6129313;23;20127;-84
2021/12/28 13:40:29;;;;;;;89.50;49.85;;;10.40;99.90;;;;;;6129908;23;20176;-84
2021/12/28 13:42:58;;;;;;;85.75;37.60;;;10.60;99.90;;;;;;6129408;23;20527;-84
2021/12/28 13:45:41;;;;;;;81.95;17.80;;;10.60;99.90;;;;;;6128779;23;20165;-84
2021/12/28 13:48:29;;;;;;;75.38;17.17;;;10.70;99.90;;;;;;6103040;23;20185;-84
2021/12/28 13:51:08;;;;;;;81.05;16.50;;;10.70;99.90;;;;;;6103983;23;20242;-83
2021/12/28 13:53:36;;;;;;;79.72;22.27;;;10.60;99.90;;;;;;6129463;23;20158;-84
2021/12/28 13:56:09;;;;;;;94.38;43.30;;;10.70;99.90;;;;;;6130723;23;20139;-85
2021/12/28 13:58:49;;;;;;;89.13;45.10;;;10.80;99.90;;;;;;6130160;23;20193;-84
2021/12/28 14:01:17;;;;;;;88.25;43.55;;;10.70;99.90;;;;;;6130238;23;20147;-85
2021/12/28 14:04:04;;;;;;;82.40;36.55;;;10.70;99.90;;;;;;6131049;23;20615;-85
2021/12/28 14:06:32;;;;;;;81.00;29.50;;;10.70;99.90;;;;;;6130760;23;20578;-84
2021/12/28 14:09:03;;;;;;;77.72;30.55;;;10.60;99.90;;;;;;6131458;23;20249;-85
2021/12/28 14:11:43;;;;;;;72.80;20.55;;;10.50;99.90;;;;;;6105513;23;20595;-84
2021/12/28 14:14:19;;;;;;;73.53;22.10;;;10.40;99.90;;;;;;6104658;23;20170;-85
2021/12/28 14:16:52;;;;;;;84.65;39.20;;;10.40;99.90;;;;;;6131441;23;20149;-85
2021/12/28 14:19:18;;;;;;;73.15;23.70;;;10.40;99.90;;;;;;6131233;23;20139;-84
2021/12/28 14:21:46;;;;;;;72.90;21.80;;;10.40;99.90;;;;;;6130169;23;20146;-84
2021/12/28 14:24:13;;;;;;;79.43;28.17;;;10.50;99.90;;;;;;6104737;23;20928;-85
2021/12/28 14:26:43;;;;;;;75.18;25.10;;;10.50;99.90;;;;;;6130079;23;20139;-85
2021/12/28 14:29:17;;;;;;;73.00;18.25;;;10.40;99.90;;;;;;6130599;23;20153;-85
2021/12/28 14:31:48;;;;;;;82.03;30.58;;;10.40;99.90;;;;;;6128374;23;20169;-83
2021/12/28 14:34:27;;;;;;;74.90;25.85;;;10.40;99.90;;;;;;6103304;23;20281;-84
2021/12/28 14:37:09;;;;;;;80.00;36.75;;;10.30;99.90;;;;;;6102692;23;20169;-83
2021/12/28 14:39:47;;;;;;;82.97;49.95;;;10.30;99.90;;;;;;6126581;23;20131;-83
2021/12/28 14:42:14;;;;;;;87.75;57.03;;;10.10;99.90;;;;;;6101156;23;20131;-84
2021/12/28 14:44:43;;;;;;;88.10;50.50;;;10.00;99.90;;;;;;6126888;23;20159;-83
2021/12/28 14:47:18;;;;;;;83.93;44.38;;;9.90;99.90;;;;;;6126489;23;20193;-83
2021/12/28 14:49:45;;;;;;;81.50;32.95;;;9.90;99.90;;;;;;6101125;23;20158;-83
2021/12/28 14:52:23;;;;;;;72.18;18.02;;;9.90;99.90;;;;;;6126227;23;20146;-83
2021/12/28 14:54:53;;;;;;;81.40;19.85;;;9.80;99.90;;;;;;6126879;23;20607;-84
2021/12/28 14:57:19;;;;;;;76.80;26.33;;;9.80;99.90;;;;;;6101314;23;20200;-83
2021/12/28 14:59:49;;;;;;;78.45;20.55;;;9.80;99.90;;;;;;6101883;23;20204;-84
2021/12/28 15:02:18;;;;;;;82.03;21.50;;;9.70;99.90;;;;;;6101124;23;20154;-84
2021/12/28 15:04:58;;;;;;;77.80;20.38;;;9.70;99.90;;;;;;6101175;23;20283;-84
2021/12/28 15:07:27;;;;;;;86.30;25.25;;;9.60;99.90;;;;;;6100819;23;20170;-84
2021/12/28 15:09:55;;;;;;;72.10;12.10;;;9.50;99.90;;;;;;6101996;23;20181;-84
2021/12/28 15:12:21;;;;;;;71.85;12.68;;;9.40;99.90;;;;;;6101656;23;20147;-84
2021/12/28 15:14:47;;;;;;;79.97;23.65;;;9.40;99.90;;;;;;6128004;23;20163;-83
2021/12/28 15:17:16;;;;;;;81.27;33.47;;;9.40;99.90;;;;;;6127628;23;20472;-83
2021/12/28 15:19:42;;;;;;;74.88;22.75;;;9.30;99.90;;;;;;6127888;23;20147;-83
2021/12/28 15:22:09;;;;;;;81.10;31.67;;;9.30;99.90;;;;;;6102233;23;20179;-83
2021/12/28 15:24:35;;;;;;;74.55;20.38;;;9.30;99.90;;;;;;6101239;23;20398;-84
2021/12/28 15:27:01;;;;;;;71.37;13.80;;;9.30;99.90;;;;;;6128646;23;20514;-84
2021/12/28 15:29:27;;;;;;;73.90;13.55;;;9.30;99.90;;;;;;6103626;23;20492;-84
2021/12/28 15:31:54;;;;;;;81.57;21.10;;;9.30;99.90;;;;;;6128811;23;20138;-84
2021/12/28 15:34:22;;;;;;;74.00;16.10;;;9.30;99.90;;;;;;6128573;23;20221;-83
2021/12/28 15:36:53;;;;;;;76.47;20.80;;;9.30;99.90;;;;;;6128093;23;20176;-84
2021/12/28 15:39:19;;;;;;;74.93;13.85;;;9.30;99.90;;;;;;6127867;23;20131;-84
2021/12/28 15:41:49;;;;;;;73.22;16.95;;;9.20;99.90;;;;;;6127630;23;20171;-84
2021/12/28 15:44:16;;;;;;;79.65;16.35;;;9.20;99.90;;;;;;6101702;23;20178;-83
2021/12/28 15:46:42;;;;;;;83.72;36.58;;;9.30;99.90;;;;;;6101844;23;20151;-84
2021/12/28 15:49:11;;;;;;;77.32;26.83;;;9.20;99.90;;;;;;6128033;23;20189;-83
2021/12/28 15:51:38;;;;;;;83.40;29.05;;;9.30;99.90;;;;;;6128801;23;20142;-84
2021/12/28 15:54:06;;;;;;;82.53;30.38;;;9.30;99.90;;;;;;6129381;23;20170;-84
2021/12/28 15:56:33;;;;;;;86.43;18.58;;;9.40;99.90;;;;;;6127718;23;20147;-84
2021/12/28 15:58:59;;;;;;;74.13;20.13;;;9.50;99.90;;;;;;6129661;23;20511;-83
2021/12/28 16:01:25;;;;;;;87.90;27.40;;;9.60;99.90;;;;;;6128895;23;20153;-83
2021/12/28 16:03:51;;;;;;;98.00;46.53;;;9.60;99.90;;;;;;6129438;23;20390;-85
2021/12/28 16:06:17;;;;;;;85.18;29.35;;;9.60;99.90;;;;;;6102305;23;20443;-83
2021/12/28 16:08:48;;;;;;;80.78;16.65;;;9.70;99.90;;;;;;6101658;23;20575;-83
2021/12/28 16:11:15;;;;;;;84.93;32.67;;;9.70;99.90;;;;;;6102015;23;20174;-82
2021/12/28 16:13:41;;;;;;;93.78;57.35;;;9.70;99.90;;;;;;6101783;23;20219;-83
2021/12/28 16:16:08;;;;;;;105.93;75.22;;;9.60;99.90;;;;;;6102566;23;20709;-84
2021/12/28 16:18:34;;;;;;;131.88;118.68;;;9.50;99.90;;;;;;6129057;23;20202;-84
2021/12/28 16:21:01;;;;;;;149.30;135.93;;;9.50;99.90;;;;;;6129582;23;20626;-84
2021/12/28 16:23:27;;;;;;;125.43;113.15;;;9.40;99.90;;;;;;6128568;23;20402;-84
2021/12/28 16:25:53;;;;;;;139.25;126.05;;;9.40;99.90;;;;;;6103893;23;20200;-84
2021/12/28 16:28:19;;;;;;;153.43;139.43;;;9.40;99.90;;;;;;6127807;23;20543;-83
2021/12/28 16:30:44;;;;;;;129.93;117.60;;;9.30;99.90;;;;;;6101306;23;20642;-82
2021/12/28 16:33:10;;;;;;;150.97;137.53;;;9.30;99.90;;;;;;6125834;23;20150;-82
2021/12/28 16:35:36;;;;;;;124.80;112.50;;;9.30;99.90;;;;;;6126311;23;20359;-81
2021/12/28 16:38:02;;;;;;;111.07;98.83;;;9.20;99.90;;;;;;6126308;23;20142;-82
2021/12/28 16:40:30;;;;;;;158.35;144.80;;;9.10;99.90;;;;;;6126263;23;20147;-81
2021/12/28 16:42:57;;;;;;;97.07;86.35;;;9.10;99.90;;;;;;6101157;23;20242;-82
2021/12/28 16:45:24;;;;;;;252.93;232.70;;;9.10;99.90;;;;;;6127130;23;20149;-82
2021/12/28 16:47:50;;;;;;;99.57;85.55;;;9.00;99.90;;;;;;6126754;23;20182;-82
2021/12/28 16:50:18;;;;;;;110.43;98.35;;;9.00;99.90;;;;;;6127203;23;20203;-83
2021/12/28 16:52:44;;;;;;;120.03;107.78;;;9.00;99.90;;;;;;6100916;23;20150;-82
2021/12/28 16:55:11;;;;;;;97.17;81.70;;;9.00;99.90;;;;;;6126344;23;20193;-83
2021/12/28 16:57:38;;;;;;;158.50;145.25;;;9.00;99.90;;;;;;6125807;23;20377;-82
2021/12/28 17:00:06;;;;;;;186.35;171.77;;;8.90;99.90;;;;;;6127059;23;20143;-82
2021/12/28 17:02:32;;;;;;;137.05;124.72;;;8.90;99.90;;;;;;6127628;23;20238;-82
2021/12/28 17:04:59;;;;;;;152.30;138.98;;;8.80;99.90;;;;;;6126929;23;20170;-82
2021/12/28 17:07:25;;;;;;;141.57;128.63;;;8.90;99.90;;;;;;6126580;23;20359;-81
2021/12/28 17:09:50;;;;;;;141.57;128.98;;;8.80;99.90;;;;;;6126688;23;20165;-82
2021/12/28 17:12:16;;;;;;;129.37;117.20;;;8.80;99.90;;;;;;6125897;23;20166;-82
2021/12/28 17:14:42;;;;;;;143.77;131.33;;;8.70;99.90;;;;;;6126099;23;20619;-83
2021/12/28 17:17:10;;;;;;;161.77;147.77;;;8.70;99.90;;;;;;6126780;23;20142;-83
2021/12/28 17:19:35;;;;;;;143.15;130.75;;;8.60;99.90;;;;;;6100252;23;20150;-82
2021/12/28 17:22:01;;;;;;;151.93;139.43;;;8.70;99.90;;;;;;6101039;23;20161;-83
2021/12/28 17:24:27;;;;;;;150.55;137.52;;;8.70;99.90;;;;;;6125529;23;20189;-82
2021/12/28 17:26:53;;;;;;;123.40;111.80;;;8.80;99.90;;;;;;6125717;23;20164;-83
2021/12/28 17:29:20;;;;;;;129.43;117.57;;;8.80;99.90;;;;;;6100509;23;20174;-83
2021/12/28 17:31:47;;;;;;;152.40;139.70;;;8.80;99.90;;;;;;6101295;23;20214;-83
2021/12/28 17:34:13;;;;;;;153.68;140.63;;;8.90;99.90;;;;;;6126018;23;20189;-83
2021/12/28 17:36:39;;;;;;;128.87;116.87;;;8.90;99.90;;;;;;6101320;23;20503;-83
2021/12/28 17:39:05;;;;;;;160.00;146.43;;;8.90;99.90;;;;;;6101666;23;20461;-82
2021/12/28 17:41:31;;;;;;;146.48;132.75;;;8.90;99.90;;;;;;6127293;23;20713;-83